createdAt,value
2023-01-10T00:02:16.443Z,2.47
2023-01-10T00:32:19.280Z,2.33
2023-01-10T01:02:24.395Z,2.35
2023-01-10T01:32:27.334Z,2.52
2023-01-10T02:02:31.331Z,2.59
2023-01-10T02:32:43.817Z,2.66
2023-01-10T03:02:52.729Z,2.50
2023-01-10T03:32:55.506Z,2.54
2023-01-10T04:02:59.894Z,2.39
2023-01-10T04:33:03.341Z,2.48
2023-01-10T05:03:08.018Z,2.50
2023-01-10T05:33:11.399Z,2.53
2023-01-10T06:03:16.494Z,2.44
2023-01-10T06:33:20.123Z,2.52
2023-01-10T07:03:24.724Z,2.55
2023-01-10T07:33:27.997Z,2.76
2023-01-10T08:03:32.874Z,2.96
2023-01-10T08:33:36.221Z,3.25
2023-01-10T09:03:40.379Z,3.55
2023-01-10T09:33:47.179Z,3.85
2023-01-10T10:03:51.818Z,4.06
2023-01-10T10:33:55.324Z,4.29
2023-01-10T11:03:58.713Z,4.58
2023-01-10T11:34:02.282Z,4.92
2023-01-10T12:04:06.253Z,5.11
2023-01-10T12:34:09.511Z,5.15
2023-01-10T13:04:13.515Z,5.30
2023-01-10T13:34:17.061Z,5.24
2023-01-10T14:04:20.576Z,5.30
2023-01-10T14:34:24.248Z,5.25
2023-01-10T15:04:28.189Z,5.07
2023-01-10T15:34:31.639Z,4.89
2023-01-10T16:04:35.455Z,4.49
2023-01-10T16:34:38.301Z,4.03
2023-01-10T17:04:42.760Z,3.55
2023-01-10T17:34:45.843Z,3.24
2023-01-10T18:04:49.153Z,3.22
2023-01-10T18:34:51.949Z,3.54
2023-01-10T19:04:55.569Z,3.76
2023-01-10T19:34:58.558Z,3.72
2023-01-10T20:05:01.892Z,3.74
2023-01-10T20:35:05.468Z,3.79
2023-01-10T21:05:08.872Z,3.82
2023-01-10T21:35:12.410Z,3.83
2023-01-10T22:05:16.180Z,3.71
2023-01-10T22:35:19.374Z,3.70
2023-01-10T23:05:22.758Z,3.36
2023-01-10T23:35:25.609Z,2.84
